Time;durP1;ratioP1;P1;durP2;ratioP2;P2;SDS_P1;SDS_P2;PMS_P1;PMS_P2;Temp;Humidity;BMP_temperature;BMP_pressure;BME280_temperature;BME280_humidity;BME280_pressure;Samples;Min_cycle;Max_cycle;Signal;HPM_P1;HPM_P2
2022/07/31 00:01:12;;;;;;;0.10;0.10;;;30.70;37.40;;;;;;5025440;28;20131;-62
2022/07/31 00:03:39;;;;;;;1.25;0.10;;;30.70;37.40;;;;;;5028950;28;20051;-62
2022/07/31 00:06:06;;;;;;;0.57;0.10;;;30.60;37.40;;;;;;5030118;28;20133;-63
2022/07/31 00:08:33;;;;;;;0.20;0.10;;;30.60;37.40;;;;;;5022425;28;20041;-63
2022/07/31 00:11:00;;;;;;;0.35;0.20;;;30.60;37.40;;;;;;5029615;28;20034;-62
2022/07/31 00:13:27;;;;;;;0.13;0.10;;;30.60;37.50;;;;;;5029532;28;20833;-62
2022/07/31 00:15:55;;;;;;;0.10;0.10;;;30.60;37.60;;;;;;5029643;28;20041;-62
2022/07/31 00:18:22;;;;;;;0.35;0.03;;;30.60;37.60;;;;;;5029440;28;20030;-62
2022/07/31 00:20:50;;;;;;;0.55;0.10;;;30.50;37.50;;;;;;4990401;28;1143637;-62
2022/07/31 00:23:17;;;;;;;0.10;0.00;;;30.50;37.60;;;;;;5030636;28;20041;-62
2022/07/31 00:25:44;;;;;;;0.00;0.00;;;30.50;37.60;;;;;;5030851;28;20115;-62
2022/07/31 00:28:11;;;;;;;0.10;0.10;;;30.50;38.30;;;;;;5030385;28;20025;-63
2022/07/31 00:30:38;;;;;;;0.10;0.10;;;30.50;37.70;;;;;;5030501;28;20041;-62
2022/07/31 00:33:06;;;;;;;0.38;0.00;;;30.50;37.80;;;;;;5026014;28;20042;-64
2022/07/31 00:35:34;;;;;;;0.10;0.10;;;30.50;37.90;;;;;;5013049;28;20050;-63
2022/07/31 00:38:01;;;;;;;0.00;0.00;;;30.50;38.50;;;;;;5030050;28;20045;-62
2022/07/31 00:40:28;;;;;;;0.10;0.10;;;30.50;37.90;;;;;;5016274;28;20523;-62
2022/07/31 00:42:56;;;;;;;0.00;0.00;;;30.50;37.90;;;;;;5030606;28;20045;-62
2022/07/31 00:45:23;;;;;;;0.35;0.10;;;30.40;38.00;;;;;;5030619;28;20195;-62
2022/07/31 00:47:50;;;;;;;0.20;0.10;;;30.40;38.00;;;;;;5027570;28;20037;-62
2022/07/31 00:50:18;;;;;;;0.10;0.03;;;30.40;38.00;;;;;;5026567;28;20057;-60
2022/07/31 00:52:45;;;;;;;0.47;0.47;;;30.40;38.00;;;;;;5030073;28;20045;-62
2022/07/31 00:55:13;;;;;;;0.10;0.10;;;30.40;38.10;;;;;;5030253;28;20045;-62
2022/07/31 00:57:42;;;;;;;0.10;0.10;;;30.40;38.10;;;;;;5021896;28;20038;-62
2022/07/31 01:00:12;;;;;;;0.10;0.10;;;30.40;38.10;;;;;;5030276;28;20045;-63
2022/07/31 01:02:39;;;;;;;1.95;0.10;;;30.40;38.20;;;;;;5028420;28;20536;-63
2022/07/31 01:05:07;;;;;;;0.10;0.10;;;30.40;38.20;;;;;;5029791;28;20061;-63
2022/07/31 01:07:35;;;;;;;2.20;0.20;;;30.40;38.20;;;;;;5028279;28;20061;-62
2022/07/31 01:10:09;;;;;;;0.20;0.10;;;30.40;38.30;;;;;;5028179;28;20537;-62
2022/07/31 01:12:42;;;;;;;0.00;0.00;;;30.40;38.30;;;;;;5025100;28;20054;-62
2022/07/31 01:15:11;;;;;;;0.10;0.10;;;30.40;38.40;;;;;;5028021;28;20040;-62
2022/07/31 01:17:42;;;;;;;0.08;0.08;;;30.40;38.40;;;;;;5017240;28;20594;-62
2022/07/31 01:20:10;;;;;;;0.43;0.00;;;30.30;38.30;;;;;;5026633;28;20515;-62
2022/07/31 01:22:56;;;;;;;0.35;0.10;;;30.40;38.50;;;;;;5029096;28;20042;-63
2022/07/31 01:25:35;;;;;;;0.00;0.00;;;30.40;38.50;;;;;;5028322;28;20053;-63
2022/07/31 01:28:34;;;;;;;0.10;0.10;;;30.30;38.50;;;;;;5028706;28;20376;-62
2022/07/31 01:31:09;;;;;;;0.38;0.10;;;30.30;38.50;;;;;;5021556;28;20176;-62
2022/07/31 01:33:48;;;;;;;0.32;0.08;;;30.20;38.50;;;;;;5024935;28;20072;-62
2022/07/31 01:36:20;;;;;;;0.10;0.10;;;30.30;38.60;;;;;;5027324;28;20115;-62
2022/07/31 01:38:51;;;;;;;0.03;0.00;;;30.20;38.60;;;;;;5027567;28;20041;-63
2022/07/31 01:41:23;;;;;;;0.00;0.00;;;30.30;38.70;;;;;;5014994;28;20079;-63
2022/07/31 01:43:53;;;;;;;0.20;0.10;;;30.20;39.20;;;;;;5027284;28;20034;-63
2022/07/31 01:46:24;;;;;;;0.05;0.00;;;30.20;38.70;;;;;;5016880;28;20085;-62
2022/07/31 01:48:54;;;;;;;0.10;0.05;;;30.20;38.70;;;;;;5012801;28;20580;-63
2022/07/31 01:51:23;;;;;;;0.00;0.00;;;30.20;38.70;;;;;;5020593;28;20128;-63
2022/07/31 01:53:52;;;;;;;0.00;0.00;;;30.20;38.80;;;;;;5016201;28;20129;-62
2022/07/31 01:56:20;;;;;;;0.00;0.00;;;30.20;38.80;;;;;;5011227;28;20096;-62
2022/07/31 01:58:49;;;;;;;0.05;0.05;;;30.20;38.80;;;;;;5019567;28;20055;-62
2022/07/31 02:01:45;;;;;;;0.00;0.00;;;30.20;38.80;;;;;;5026711;28;20068;-63
2022/07/31 02:04:14;;;;;;;0.10;0.00;;;30.10;38.80;;;;;;5027415;28;20095;-64
2022/07/31 02:06:42;;;;;;;0.15;0.00;;;30.10;38.80;;;;;;5026971;28;20045;-64
2022/07/31 02:09:10;;;;;;;0.10;0.10;;;30.20;38.90;;;;;;5020624;28;20057;-63
2022/07/31 02:11:38;;;;;;;0.00;0.00;;;30.10;38.80;;;;;;5027221;28;20041;-63
2022/07/31 02:14:05;;;;;;;0.00;0.00;;;30.20;38.90;;;;;;5017771;28;20068;-63
2022/07/31 02:16:36;;;;;;;0.10;0.10;;;30.20;39.00;;;;;;5020594;28;20045;-63
2022/07/31 02:19:13;;;;;;;0.32;0.00;;;30.10;38.90;;;;;;5026766;28;20068;-62
2022/07/31 02:21:40;;;;;;;0.00;0.00;;;30.20;39.00;;;;;;5026776;28;20045;-62
2022/07/31 02:24:08;;;;;;;0.03;0.00;;;30.10;39.00;;;;;;5026186;28;20056;-63
2022/07/31 02:26:37;;;;;;;0.00;0.00;;;30.10;39.00;;;;;;5026721;28;20049;-62
2022/07/31 02:29:06;;;;;;;0.55;0.00;;;30.10;39.10;;;;;;5026579;28;20133;-62
2022/07/31 02:31:36;;;;;;;0.80;0.00;;;30.10;39.10;;;;;;5028369;28;20055;-63
2022/07/31 02:34:03;;;;;;;0.00;0.00;;;30.10;39.10;;;;;;5019826;28;20063;-63
2022/07/31 02:36:34;;;;;;;0.00;0.00;;;30.10;39.10;;;;;;5015696;28;20057;-63
2022/07/31 02:39:03;;;;;;;0.95;0.00;;;30.10;39.20;;;;;;5023189;28;20496;-62
2022/07/31 02:41:32;;;;;;;0.00;0.00;;;30.10;39.20;;;;;;5007721;28;20048;-63
2022/07/31 02:44:00;;;;;;;0.00;0.00;;;30.10;39.20;;;;;;5019152;28;20072;-63
2022/07/31 02:46:27;;;;;;;0.03;0.00;;;30.00;39.20;;;;;;5026190;28;20538;-62
2022/07/31 02:48:56;;;;;;;0.08;0.00;;;30.00;39.20;;;;;;5026019;28;20052;-62
2022/07/31 02:51:24;;;;;;;0.00;0.00;;;30.00;39.20;;;;;;5018887;28;20034;-62
2022/07/31 02:53:53;;;;;;;0.17;0.00;;;30.00;39.30;;;;;;5025967;28;20132;-62
2022/07/31 02:56:23;;;;;;;0.00;0.00;;;30.00;39.30;;;;;;5026100;28;20088;-62
2022/07/31 02:58:50;;;;;;;0.17;0.00;;;30.00;39.30;;;;;;5026241;28;20217;-62
2022/07/31 03:01:24;;;;;;;0.25;0.00;;;30.00;39.40;;;;;;5021616;28;20049;-62
2022/07/31 03:03:52;;;;;;;0.20;0.00;;;30.00;39.40;;;;;;4996926;28;20488;-63
2022/07/31 03:06:19;;;;;;;1.00;0.10;;;29.90;39.40;;;;;;5024639;28;20129;-62
2022/07/31 03:08:47;;;;;;;0.20;0.00;;;29.90;40.00;;;;;;5010022;28;20375;-63
2022/07/31 03:11:19;;;;;;;0.28;0.10;;;29.90;39.40;;;;;;5018165;28;20080;-62
2022/07/31 03:13:47;;;;;;;0.00;0.00;;;29.90;39.40;;;;;;5019684;28;20049;-62
2022/07/31 03:16:15;;;;;;;0.52;0.00;;;30.00;39.50;;;;;;5027285;28;20091;-63
2022/07/31 03:18:43;;;;;;;0.00;0.00;;;30.00;39.60;;;;;;5025580;28;20056;-63
2022/07/31 03:21:11;;;;;;;0.10;0.10;;;29.90;39.50;;;;;;5019501;28;20644;-63
2022/07/31 03:23:38;;;;;;;0.00;0.00;;;29.90;39.60;;;;;;5019384;28;20045;-62
2022/07/31 03:26:10;;;;;;;0.10;0.10;;;29.90;39.60;;;;;;5026402;28;20059;-63
2022/07/31 03:28:39;;;;;;;0.40;0.00;;;29.90;39.60;;;;;;5012985;28;20049;-63
2022/07/31 03:31:07;;;;;;;0.00;0.00;;;29.90;39.60;;;;;;5027395;28;20037;-63
2022/07/31 03:33:35;;;;;;;0.08;0.00;;;29.90;39.60;;;;;;5027783;28;20057;-63
2022/07/31 03:36:03;;;;;;;0.25;0.00;;;29.90;39.70;;;;;;5027258;28;20041;-63
2022/07/31 03:38:30;;;;;;;0.03;0.03;;;29.90;39.70;;;;;;5025775;28;20052;-64
2022/07/31 03:41:00;;;;;;;0.08;0.08;;;29.90;39.70;;;;;;5026213;28;20160;-63
2022/07/31 03:43:28;;;;;;;0.00;0.00;;;29.90;39.70;;;;;;5025818;28;20146;-63
2022/07/31 03:45:59;;;;;;;0.00;0.00;;;29.90;39.80;;;;;;5025717;28;20077;-62
2022/07/31 03:48:27;;;;;;;0.10;0.00;;;29.90;39.90;;;;;;5025714;28;20500;-62
2022/07/31 03:50:54;;;;;;;0.08;0.00;;;29.80;39.80;;;;;;5022244;28;20158;-63
2022/07/31 03:53:22;;;;;;;0.00;0.00;;;29.90;39.90;;;;;;5025586;28;20049;-63
2022/07/31 03:55:50;;;;;;;0.22;0.22;;;29.90;39.90;;;;;;5025237;28;20063;-63
2022/07/31 03:58:18;;;;;;;0.00;0.00;;;29.80;39.90;;;;;;5027332;28;20072;-64
2022/07/31 04:00:46;;;;;;;0.00;0.00;;;29.80;40.50;;;;;;5018976;28;20049;-63
2022/07/31 04:03:14;;;;;;;0.00;0.00;;;29.90;40.00;;;;;;5026461;28;20049;-63
2022/07/31 04:06:05;;;;;;;0.00;0.00;;;29.80;40.00;;;;;;5004368;28;20176;-63
2022/07/31 04:08:33;;;;;;;0.00;0.00;;;29.80;40.00;;;;;;5004455;28;20291;-63
2022/07/31 04:11:00;;;;;;;0.00;0.00;;;29.80;40.10;;;;;;4993173;28;20094;-62
2022/07/31 04:13:27;;;;;;;0.08;0.03;;;29.80;40.10;;;;;;5004481;28;20057;-63
2022/07/31 04:15:54;;;;;;;2.92;0.00;;;29.80;40.10;;;;;;5003824;28;20113;-63
2022/07/31 04:18:23;;;;;;;0.52;0.05;;;29.80;40.10;;;;;;4995419;28;20066;-63
2022/07/31 04:20:50;;;;;;;0.20;0.20;;;29.80;40.10;;;;;;5004296;28;20125;-63
2022/07/31 04:23:17;;;;;;;1.00;0.10;;;29.70;40.10;;;;;;5004599;28;20531;-62
2022/07/31 04:26:03;;;;;;;0.65;0.10;;;29.80;40.20;;;;;;5004531;28;20682;-61
2022/07/31 04:28:36;;;;;;;0.10;0.10;;;29.70;40.20;;;;;;5020801;28;20049;-62
2022/07/31 04:31:03;;;;;;;0.00;0.00;;;29.70;40.20;;;;;;5003802;28;20068;-61
2022/07/31 04:33:35;;;;;;;1.48;0.10;;;29.70;40.20;;;;;;5004357;28;20054;-62
2022/07/31 04:36:02;;;;;;;1.02;0.10;;;29.70;40.30;;;;;;5021032;28;20058;-61
2022/07/31 04:38:29;;;;;;;0.65;0.10;;;29.70;40.30;;;;;;4988269;28;20038;-62
2022/07/31 04:40:56;;;;;;;0.30;0.20;;;29.70;40.30;;;;;;5004103;28;20056;-62
2022/07/31 04:43:23;;;;;;;0.35;0.10;;;29.70;40.40;;;;;;5023949;28;20125;-62
2022/07/31 04:45:50;;;;;;;0.10;0.10;;;29.70;40.40;;;;;;5026496;28;20053;-61
2022/07/31 04:48:18;;;;;;;0.00;0.00;;;29.70;40.40;;;;;;5028000;28;20041;-62
2022/07/31 04:50:46;;;;;;;0.15;0.10;;;29.70;41.00;;;;;;5030446;28;20038;-62
2022/07/31 04:53:13;;;;;;;0.10;0.10;;;29.70;40.40;;;;;;5022535;28;20499;-62
2022/07/31 04:56:31;;;;;;;0.20;0.10;;;29.70;40.40;;;;;;5025252;28;20427;-62
2022/07/31 04:58:30;;;;;;;0.10;0.10;;;29.70;40.50;;;;;;5017634;28;20045;-61
2022/07/31 05:00:57;;;;;;;0.75;0.10;;;29.70;40.50;;;;;;5015791;28;20156;-62
2022/07/31 05:03:24;;;;;;;0.10;0.10;;;29.60;40.50;;;;;;5009350;28;20549;-62
2022/07/31 05:05:52;;;;;;;0.85;0.10;;;29.70;40.50;;;;;;5009516;28;20133;-61
2022/07/31 05:08:19;;;;;;;0.15;0.10;;;29.70;40.60;;;;;;5013174;28;20109;-62
2022/07/31 05:13:29;;;;;;;0.10;0.10;;;29.70;40.60;;;;;;4995951;28;20534;-62
2022/07/31 05:15:56;;;;;;;0.57;0.10;;;29.70;40.70;;;;;;5009199;28;20127;-62
2022/07/31 05:18:23;;;;;;;0.10;0.10;;;29.70;40.60;;;;;;5024261;28;20571;-61
2022/07/31 05:21:21;;;;;;;0.10;0.10;;;29.70;40.60;;;;;;5006455;28;20052;-62
2022/07/31 05:24:12;;;;;;;0.10;0.10;;;29.60;40.60;;;;;;4994704;28;20058;-62
2022/07/31 05:26:55;;;;;;;0.28;0.28;;;29.60;40.60;;;;;;4989753;28;20081;-62
2022/07/31 05:29:23;;;;;;;0.10;0.10;;;29.60;40.70;;;;;;4980736;28;20050;-62
2022/07/31 05:31:50;;;;;;;0.85;0.00;;;29.60;40.70;;;;;;5004862;28;20046;-62
2022/07/31 05:34:18;;;;;;;0.10;0.10;;;29.60;40.70;;;;;;4990383;28;20571;-62
2022/07/31 05:36:46;;;;;;;0.10;0.10;;;29.60;40.70;;;;;;4990424;28;20112;-61
2022/07/31 05:39:16;;;;;;;0.10;0.10;;;29.60;40.70;;;;;;5004882;28;20045;-61
2022/07/31 05:42:01;;;;;;;0.10;0.10;;;29.60;40.70;;;;;;4998597;28;20039;-61
2022/07/31 05:45:00;;;;;;;0.10;0.10;;;29.60;40.80;;;;;;4998899;28;20050;-61
2022/07/31 05:47:28;;;;;;;0.10;0.10;;;29.60;40.80;;;;;;4988475;28;20058;-62
2022/07/31 05:49:55;;;;;;;0.20;0.10;;;29.60;40.80;;;;;;4996195;28;20144;-63
2022/07/31 05:52:23;;;;;;;0.30;0.10;;;29.60;40.80;;;;;;5022669;28;20060;-65
2022/07/31 05:55:08;;;;;;;0.43;0.10;;;29.60;40.80;;;;;;4988532;28;20057;-63
2022/07/31 05:57:53;;;;;;;0.15;0.10;;;29.60;40.90;;;;;;5006945;28;20115;-63
2022/07/31 06:00:21;;;;;;;0.10;0.10;;;29.60;40.90;;;;;;5022439;28;20503;-63
2022/07/31 06:02:48;;;;;;;0.68;0.10;;;29.60;40.90;;;;;;5028891;28;20136;-63
2022/07/31 06:05:34;;;;;;;1.08;0.10;;;29.60;40.80;;;;;;5024421;28;20052;-63
2022/07/31 06:08:03;;;;;;;0.10;0.10;;;29.60;40.90;;;;;;5020827;28;20041;-63
2022/07/31 06:10:36;;;;;;;0.10;0.10;;;29.60;40.90;;;;;;4997732;28;20068;-63
2022/07/31 06:13:03;;;;;;;0.10;0.10;;;29.60;40.90;;;;;;5014330;28;20137;-63
2022/07/31 06:15:30;;;;;;;0.73;0.10;;;29.60;40.90;;;;;;5000153;28;20069;-63
2022/07/31 06:17:58;;;;;;;0.40;0.40;;;29.60;41.50;;;;;;5026850;28;20055;-63
2022/07/31 06:20:28;;;;;;;0.10;0.10;;;29.60;40.90;;;;;;5028096;28;20068;-64
2022/07/31 06:22:56;;;;;;;0.10;0.10;;;29.60;40.90;;;;;;5027082;28;20524;-63
2022/07/31 06:25:27;;;;;;;0.30;0.22;;;29.60;40.90;;;;;;5027028;28;20037;-63
2022/07/31 06:27:54;;;;;;;0.10;0.10;;;29.60;40.90;;;;;;5028489;28;20037;-63
2022/07/31 06:30:21;;;;;;;0.10;0.10;;;29.60;40.90;;;;;;5004000;28;20037;-63
2022/07/31 06:32:48;;;;;;;1.60;0.10;;;29.60;40.90;;;;;;5026586;28;20064;-63
2022/07/31 06:35:15;;;;;;;0.10;0.10;;;29.60;40.90;;;;;;5026991;28;20518;-63
2022/07/31 06:38:06;;;;;;;0.88;0.20;;;29.60;40.90;;;;;;5028377;28;20037;-63
2022/07/31 06:40:47;;;;;;;0.90;0.22;;;29.60;40.90;;;;;;5009851;28;20104;-64
2022/07/31 06:43:34;;;;;;;0.82;0.10;;;29.60;40.90;;;;;;5016655;28;20049;-63
2022/07/31 06:46:24;;;;;;;0.40;0.10;;;29.60;40.90;;;;;;5021535;28;20049;-63
2022/07/31 06:49:10;;;;;;;0.10;0.10;;;29.60;41.10;;;;;;5028297;28;20057;-63
2022/07/31 06:51:37;;;;;;;0.10;0.10;;;29.60;41.00;;;;;;5024313;28;20578;-63
2022/07/31 06:54:07;;;;;;;0.40;0.10;;;29.60;40.90;;;;;;5024108;28;20038;-63
2022/07/31 06:56:37;;;;;;;0.40;0.10;;;29.60;40.90;;;;;;5025835;28;20064;-63
2022/07/31 06:59:06;;;;;;;0.10;0.10;;;29.60;40.90;;;;;;5025232;28;20042;-63
2022/07/31 07:01:33;;;;;;;1.25;0.20;;;29.60;41.50;;;;;;5010300;28;20128;-63
2022/07/31 07:04:00;;;;;;;1.10;0.20;;;29.60;40.90;;;;;;5018871;28;20955;-62
2022/07/31 07:06:28;;;;;;;0.43;0.10;;;29.60;40.90;;;;;;5025872;28;20056;-63
2022/07/31 07:08:55;;;;;;;0.47;0.10;;;29.60;40.90;;;;;;5019587;28;20091;-62
2022/07/31 07:11:23;;;;;;;3.42;0.75;;;29.70;40.90;;;;;;5012903;28;20114;-62
2022/07/31 07:13:52;;;;;;;0.65;0.20;;;29.60;40.90;;;;;;5013512;28;20496;-62
2022/07/31 07:16:19;;;;;;;0.20;0.10;;;29.60;40.90;;;;;;5013221;28;20392;-63
2022/07/31 07:18:47;;;;;;;0.40;0.10;;;29.60;40.80;;;;;;5019797;28;20056;-63
2022/07/31 07:21:14;;;;;;;0.20;0.10;;;29.60;40.80;;;;;;5013028;28;20049;-63
2022/07/31 07:23:42;;;;;;;0.50;0.10;;;29.70;40.90;;;;;;5019054;28;20072;-62
2022/07/31 07:26:27;;;;;;;;;;;29.60;40.80;;;;;;5008121;28;20054;-63
2022/07/31 07:28:56;;;;;;;0.55;0.38;;;29.60;40.70;;;;;;5023176;28;19932;-63
2022/07/31 07:31:24;;;;;;;0.30;0.10;;;29.60;41.00;;;;;;5010390;28;20052;-62
2022/07/31 07:33:51;;;;;;;1.75;0.30;;;29.60;40.90;;;;;;5025872;28;20041;-63
2022/07/31 07:36:23;;;;;;;0.90;0.38;;;29.60;40.90;;;;;;5028185;28;20052;-63
2022/07/31 07:38:53;;;;;;;0.20;0.20;;;29.70;40.90;;;;;;5025937;28;20499;-63
2022/07/31 07:41:20;;;;;;;0.70;0.10;;;29.60;40.80;;;;;;5025613;28;20053;-63
2022/07/31 07:43:47;;;;;;;0.28;0.28;;;29.70;40.90;;;;;;5027371;28;20092;-62
2022/07/31 07:46:16;;;;;;;0.50;0.10;;;29.70;40.90;;;;;;5017194;28;20046;-63
2022/07/31 07:48:50;;;;;;;1.20;0.20;;;29.70;40.80;;;;;;5013991;28;20042;-62
2022/07/31 07:51:21;;;;;;;0.47;0.20;;;29.70;40.90;;;;;;5027037;28;20526;-62
2022/07/31 07:53:55;;;;;;;0.90;0.17;;;29.70;40.90;;;;;;5018755;28;20569;-63
2022/07/31 07:56:43;;;;;;;1.30;0.65;;;29.70;40.80;;;;;;5026642;28;20542;-63
2022/07/31 07:59:30;;;;;;;0.50;0.50;;;29.70;40.80;;;;;;5019392;28;20427;-63
2022/07/31 08:02:33;;;;;;;0.73;0.30;;;29.70;40.80;;;;;;5025478;28;20589;-63
2022/07/31 08:05:00;;;;;;;0.82;0.30;;;29.70;40.80;;;;;;5008047;28;20053;-61
2022/07/31 08:07:27;;;;;;;0.68;0.20;;;29.70;40.80;;;;;;5020325;28;20129;-62
2022/07/31 08:09:55;;;;;;;1.35;0.25;;;29.70;40.80;;;;;;5024376;28;20488;-62
2022/07/31 08:12:34;;;;;;;1.45;0.30;;;29.80;40.80;;;;;;5013137;28;20050;-62
2022/07/31 08:15:08;;;;;;;0.22;0.20;;;29.80;40.80;;;;;;5021390;28;20092;-62
2022/07/31 08:17:55;;;;;;;0.75;0.30;;;29.80;40.90;;;;;;5026890;28;20058;-62
2022/07/31 08:20:22;;;;;;;0.40;0.20;;;29.80;40.80;;;;;;5025551;28;20044;-63
2022/07/31 08:22:52;;;;;;;0.28;0.25;;;29.80;40.80;;;;;;5015171;28;20037;-62
2022/07/31 08:25:19;;;;;;;1.13;0.40;;;29.80;40.80;;;;;;5029205;28;20049;-63
2022/07/31 08:27:48;;;;;;;0.17;0.17;;;29.80;40.70;;;;;;5016469;28;20049;-63
2022/07/31 08:30:16;;;;;;;0.30;0.30;;;29.80;40.70;;;;;;5016768;28;20129;-63
2022/07/31 08:32:43;;;;;;;0.57;0.30;;;29.80;40.70;;;;;;5030877;28;20137;-62
2022/07/31 08:35:43;;;;;;;0.50;0.20;;;29.80;40.70;;;;;;5016873;28;20050;-62
2022/07/31 08:38:11;;;;;;;0.30;0.20;;;29.80;40.70;;;;;;5026743;28;20088;-63
2022/07/31 08:40:50;;;;;;;0.40;0.40;;;29.80;40.70;;;;;;5016361;28;20530;-63
2022/07/31 08:43:17;;;;;;;0.32;0.20;;;29.90;40.70;;;;;;5016673;28;20045;-62
2022/07/31 08:45:47;;;;;;;0.20;0.13;;;29.90;40.70;;;;;;5016628;28;20038;-62
2022/07/31 08:48:27;;;;;;;0.75;0.30;;;29.90;40.60;;;;;;5012112;28;20104;-62
2022/07/31 08:50:56;;;;;;;0.50;0.20;;;29.90;40.70;;;;;;5022300;28;20054;-63
2022/07/31 08:53:43;;;;;;;1.75;0.50;;;29.90;40.60;;;;;;5024172;28;20045;-63
2022/07/31 08:56:17;;;;;;;1.45;0.25;;;29.90;40.60;;;;;;5028883;28;20129;-62
2022/07/31 08:58:44;;;;;;;1.23;0.45;;;29.90;40.60;;;;;;5028849;28;20522;-62
2022/07/31 09:01:12;;;;;;;0.50;0.50;;;29.90;40.60;;;;;;5030506;28;20120;-61
2022/07/31 09:03:39;;;;;;;1.35;0.28;;;29.90;40.60;;;;;;5028571;28;20054;-62
2022/07/31 09:06:11;;;;;;;0.20;0.17;;;30.00;40.70;;;;;;5028202;28;20065;-62
2022/07/31 09:08:38;;;;;;;0.40;0.35;;;30.00;40.70;;;;;;5029634;28;20055;-61
2022/07/31 09:11:09;;;;;;;1.40;0.20;;;30.00;40.60;;;;;;5010999;28;20136;-63
2022/07/31 09:13:39;;;;;;;0.22;0.20;;;30.00;40.60;;;;;;5028842;28;20101;-61
2022/07/31 09:16:27;;;;;;;0.77;0.43;;;30.00;40.60;;;;;;5029979;28;20061;-62
2022/07/31 09:18:56;;;;;;;0.50;0.50;;;30.00;40.60;;;;;;5029791;28;20128;-62
2022/07/31 09:21:24;;;;;;;0.68;0.20;;;30.00;40.60;;;;;;5028153;28;20115;-63
2022/07/31 09:23:53;;;;;;;0.30;0.20;;;30.00;40.60;;;;;;5027555;28;20041;-62
2022/07/31 09:26:20;;;;;;;1.25;0.20;;;30.00;40.60;;;;;;5027947;28;20057;-62
2022/07/31 09:28:50;;;;;;;3.03;0.65;;;30.00;40.60;;;;;;5024572;28;20820;-62
2022/07/31 09:31:17;;;;;;;1.35;0.30;;;30.10;40.60;;;;;;5024350;28;20038;-62
2022/07/31 09:34:00;;;;;;;0.30;0.30;;;30.10;40.60;;;;;;5022272;28;20415;-61
2022/07/31 09:36:35;;;;;;;0.85;0.40;;;30.00;40.50;;;;;;5038132;28;20041;-62
2022/07/31 09:39:21;;;;;;;0.77;0.30;;;30.10;40.60;;;;;;5027745;28;20029;-62
2022/07/31 09:42:14;;;;;;;0.30;0.30;;;30.10;40.60;;;;;;5023370;28;20046;-62
2022/07/31 09:45:05;;;;;;;0.40;0.25;;;30.10;40.60;;;;;;5015420;28;20044;-62
2022/07/31 09:47:34;;;;;;;0.20;0.20;;;30.10;40.60;;;;;;5029529;28;20091;-62
2022/07/31 09:50:06;;;;;;;0.50;0.20;;;30.10;40.60;;;;;;5021667;28;20042;-62
2022/07/31 09:52:35;;;;;;;0.22;0.20;;;30.10;40.60;;;;;;5029531;28;20080;-62
2022/07/31 09:55:05;;;;;;;0.40;0.30;;;30.10;40.50;;;;;;5027354;28;20120;-62
2022/07/31 09:57:34;;;;;;;0.55;0.20;;;30.10;40.60;;;;;;5028168;28;20119;-63
2022/07/31 10:00:01;;;;;;;0.30;0.30;;;30.10;40.50;;;;;;5009816;28;20068;-63
2022/07/31 10:02:30;;;;;;;0.32;0.32;;;30.10;40.50;;;;;;5014994;28;20057;-63
2022/07/31 10:04:59;;;;;;;1.05;0.50;;;30.10;40.50;;;;;;5008711;28;20046;-61
2022/07/31 10:07:34;;;;;;;3.55;0.73;;;30.10;40.50;;;;;;5018764;28;20071;-62
2022/07/31 10:10:11;;;;;;;1.63;0.43;;;30.10;40.50;;;;;;5055715;28;20095;-62
2022/07/31 10:13:03;;;;;;;0.30;0.20;;;30.10;40.50;;;;;;5028745;28;20045;-61
2022/07/31 10:15:32;;;;;;;0.60;0.55;;;30.10;41.10;;;;;;5027539;28;20132;-62
2022/07/31 10:18:28;;;;;;;3.03;0.30;;;30.10;40.50;;;;;;5026904;28;20037;-61
2022/07/31 10:21:16;;;;;;;0.73;0.30;;;30.10;40.50;;;;;;5025273;28;20060;-61
2022/07/31 10:23:51;;;;;;;0.50;0.20;;;30.10;40.50;;;;;;5028517;28;20037;-62
2022/07/31 10:26:21;;;;;;;0.43;0.20;;;30.10;40.50;;;;;;5008226;28;20537;-60
2022/07/31 10:28:49;;;;;;;0.57;0.20;;;30.20;40.60;;;;;;5015321;28;20046;-62
2022/07/31 10:31:17;;;;;;;1.40;0.20;;;30.20;40.50;;;;;;5026993;28;20507;-61
2022/07/31 10:33:46;;;;;;;0.63;0.40;;;30.10;40.40;;;;;;5026754;28;20037;-62
2022/07/31 10:36:36;;;;;;;1.70;1.35;;;30.20;40.50;;;;;;5024246;28;20041;-61
2022/07/31 10:39:30;;;;;;;0.80;0.40;;;30.20;40.50;;;;;;5028378;28;20124;-61
2022/07/31 10:42:19;;;;;;;0.30;0.30;;;30.20;40.50;;;;;;5021809;28;20045;-61
2022/07/31 10:44:52;;;;;;;0.60;0.40;;;30.20;40.50;;;;;;5026378;28;20045;-62
2022/07/31 10:47:26;;;;;;;1.95;0.60;;;30.20;40.60;;;;;;5026131;28;20470;-61
2022/07/31 10:50:20;;;;;;;0.30;0.30;;;30.20;40.50;;;;;;5003194;28;20053;-62
2022/07/31 10:53:18;;;;;;;0.40;0.20;;;30.20;40.50;;;;;;4988026;28;20046;-61
2022/07/31 10:56:09;;;;;;;0.50;0.50;;;30.20;40.50;;;;;;4999581;28;20054;-62
2022/07/31 10:58:57;;;;;;;1.50;0.25;;;30.20;40.50;;;;;;5005200;28;20057;-63
2022/07/31 11:01:47;;;;;;;2.00;0.32;;;30.20;40.50;;;;;;5005580;28;20452;-62
2022/07/31 11:04:34;;;;;;;4.13;0.40;;;30.20;40.50;;;;;;4998906;28;20042;-62
2022/07/31 11:07:22;;;;;;;1.17;0.28;;;30.20;40.50;;;;;;4966532;28;20065;-62
2022/07/31 11:10:17;;;;;;;0.20;0.20;;;30.20;40.50;;;;;;4966358;28;20047;-62
2022/07/31 11:13:24;;;;;;;0.50;0.20;;;30.20;40.50;;;;;;4909553;29;20163;-62
2022/07/31 11:16:06;;;;;;;0.80;0.20;;;30.20;40.50;;;;;;4909363;29;20602;-62
2022/07/31 11:18:58;;;;;;;0.20;0.20;;;30.20;40.40;;;;;;4908080;29;20107;-62
2022/07/31 11:21:32;;;;;;;0.50;0.30;;;30.20;40.40;;;;;;4909305;29;20062;-62
2022/07/31 11:23:59;;;;;;;0.47;0.30;;;30.30;40.50;;;;;;4909383;29;20134;-62
2022/07/31 11:26:26;;;;;;;0.50;0.50;;;30.30;40.50;;;;;;4907628;29;20048;-62
2022/07/31 11:28:53;;;;;;;0.20;0.20;;;30.30;40.40;;;;;;4905133;29;20130;-62
2022/07/31 11:31:29;;;;;;;0.50;0.20;;;30.40;40.50;;;;;;4908259;29;20059;-62
2022/07/31 11:33:56;;;;;;;0.30;0.30;;;30.40;40.50;;;;;;4908885;29;20048;-62
2022/07/31 11:36:24;;;;;;;1.95;0.30;;;30.30;40.40;;;;;;4908978;29;20442;-62
2022/07/31 11:38:53;;;;;;;0.40;0.40;;;30.40;40.40;;;;;;4908774;29;20052;-62
2022/07/31 11:41:20;;;;;;;0.70;0.50;;;30.40;40.50;;;;;;4906884;29;20141;-62
2022/07/31 11:43:48;;;;;;;1.70;0.20;;;30.40;40.40;;;;;;4935002;28;20577;-62
2022/07/31 11:46:23;;;;;;;0.20;0.20;;;30.40;40.40;;;;;;5027496;28;20056;-62
2022/07/31 11:48:52;;;;;;;0.20;0.10;;;30.40;40.40;;;;;;5027734;28;20049;-62
2022/07/31 11:51:20;;;;;;;0.20;0.20;;;30.50;40.40;;;;;;5027610;28;20061;-62
2022/07/31 11:53:48;;;;;;;0.43;0.10;;;30.40;40.30;;;;;;5027843;28;20056;-62
2022/07/31 11:56:17;;;;;;;0.75;0.20;;;30.50;40.30;;;;;;5029406;28;20033;-63
2022/07/31 11:58:47;;;;;;;0.28;0.20;;;30.50;40.30;;;;;;5032016;28;20045;-62
2022/07/31 12:01:14;;;;;;;0.45;0.45;;;30.50;40.30;;;;;;5031327;28;20084;-62
2022/07/31 12:03:42;;;;;;;0.40;0.30;;;30.50;40.20;;;;;;5031875;28;20045;-62
2022/07/31 12:06:12;;;;;;;1.00;0.20;;;30.60;40.30;;;;;;5031476;28;20156;-62
2022/07/31 12:08:40;;;;;;;0.38;0.17;;;30.60;40.30;;;;;;5031581;28;20057;-62
2022/07/31 12:11:08;;;;;;;0.20;0.20;;;30.60;40.30;;;;;;5024412;28;20461;-61
2022/07/31 12:13:35;;;;;;;1.65;0.10;;;30.60;40.30;;;;;;5030791;28;20071;-62
2022/07/31 12:16:06;;;;;;;0.60;0.20;;;30.60;40.20;;;;;;5031318;28;20033;-62
2022/07/31 12:18:46;;;;;;;0.70;0.10;;;30.70;40.30;;;;;;5030134;28;20050;-61
2022/07/31 12:21:15;;;;;;;0.17;0.17;;;30.70;40.20;;;;;;5031028;28;20049;-61
2022/07/31 12:23:45;;;;;;;0.30;0.20;;;30.70;40.20;;;;;;5030431;28;20037;-61
2022/07/31 12:26:20;;;;;;;1.38;0.25;;;30.70;40.10;;;;;;5026267;28;20052;-62
2022/07/31 12:28:56;;;;;;;;;;;30.80;40.20;;;;;;5025152;28;20606;-62
2022/07/31 12:31:23;;;;;;;0.30;0.30;;;30.70;40.00;;;;;;5025898;28;19932;-60
2022/07/31 12:33:50;;;;;;;0.60;0.20;;;30.70;40.10;;;;;;5030884;28;20076;-61
2022/07/31 12:36:19;;;;;;;0.20;0.15;;;30.80;40.10;;;;;;5030900;28;20073;-62
2022/07/31 12:38:57;;;;;;;1.55;0.45;;;30.90;40.20;;;;;;5030957;28;20049;-61
2022/07/31 12:41:25;;;;;;;0.75;0.20;;;30.80;40.10;;;;;;5030414;28;20132;-62
2022/07/31 12:43:52;;;;;;;0.85;0.10;;;30.90;40.10;;;;;;5030342;28;20140;-62
2022/07/31 12:46:20;;;;;;;0.20;0.20;;;30.90;40.10;;;;;;5022935;28;20050;-60
2022/07/31 12:48:47;;;;;;;0.20;0.10;;;31.00;40.10;;;;;;5030389;28;20415;-62
2022/07/31 12:51:15;;;;;;;0.30;0.30;;;31.00;40.00;;;;;;5030877;28;20124;-62
2022/07/31 12:53:44;;;;;;;0.38;0.35;;;31.00;40.00;;;;;;5030850;28;20076;-62
2022/07/31 12:56:11;;;;;;;0.75;0.20;;;31.10;40.00;;;;;;5030306;28;20041;-62
2022/07/31 12:58:38;;;;;;;1.40;0.68;;;31.10;40.00;;;;;;5015856;28;20121;-62
2022/07/31 13:01:05;;;;;;;1.80;0.10;;;31.10;39.90;;;;;;5030384;28;20443;-62
2022/07/31 13:03:32;;;;;;;0.52;0.20;;;31.10;39.90;;;;;;5030258;28;20044;-62
2022/07/31 13:05:59;;;;;;;0.10;0.10;;;31.10;39.90;;;;;;5030258;28;20037;-60
2022/07/31 13:08:28;;;;;;;0.70;0.10;;;31.20;39.90;;;;;;5030009;28;20045;-62
2022/07/31 13:10:56;;;;;;;0.90;0.20;;;31.20;39.90;;;;;;5030342;28;20596;-62
2022/07/31 13:13:24;;;;;;;1.30;0.20;;;31.30;39.90;;;;;;5030308;28;20044;-61
2022/07/31 13:15:51;;;;;;;0.10;0.10;;;31.30;40.40;;;;;;5030572;28;20044;-60